Time;durP1;ratioP1;P1;durP2;ratioP2;P2;SDS_P1;SDS_P2;PMS_P1;PMS_P2;Temp;Humidity;BMP_temperature;BMP_pressure;BME280_temperature;BME280_humidity;BME280_pressure;Samples;Min_cycle;Max_cycle;Signal;HPM_P1;HPM_P2
2022/04/11 00:02:00;;;;;;;;;;;3.50;99.90;;;;;;5073642;28;19943;-71
2022/04/11 00:04:26;;;;;;;;;;;3.50;99.90;;;;;;5055377;28;20001;-71
2022/04/11 00:06:52;;;;;;;;;;;3.50;99.90;;;;;;5072435;28;20291;-71
2022/04/11 00:09:17;;;;;;;;;;;3.50;99.90;;;;;;5073238;28;19913;-71
2022/04/11 00:11:43;;;;;;;;;;;3.50;99.90;;;;;;5071879;28;20364;-72
2022/04/11 00:14:09;;;;;;;;;;;3.50;99.90;;;;;;5055535;28;19928;-72
2022/04/11 00:16:34;;;;;;;;;;;3.60;99.90;;;;;;5072583;28;19921;-71
2022/04/11 00:19:00;;;;;;;;;;;3.60;99.90;;;;;;5075402;28;19920;-72
2022/04/11 00:21:26;;;;;;;;;;;3.60;99.90;;;;;;5058419;28;19943;-72
2022/04/11 00:23:51;;;;;;;;;;;3.60;99.90;;;;;;5076629;28;19912;-72
2022/04/11 00:26:17;;;;;;;;;;;3.70;99.90;;;;;;5076874;28;19912;-72
2022/04/11 00:28:42;;;;;;;;;;;3.70;99.90;;;;;;5075424;28;19913;-72
2022/04/11 00:31:08;;;;;;;;;;;3.70;99.90;;;;;;5076884;28;19920;-72
2022/04/11 00:33:33;;;;;;;;;;;3.70;99.90;;;;;;5069038;28;19924;-73
2022/04/11 00:35:59;;;;;;;;;;;3.70;99.90;;;;;;5076532;28;20268;-72
2022/04/11 00:38:24;;;;;;;;;;;3.60;99.90;;;;;;5068478;28;19919;-71
2022/04/11 00:40:50;;;;;;;;;;;3.60;99.90;;;;;;5075688;28;19938;-72
2022/04/11 00:43:31;;;;;;;;;;;3.70;99.90;;;;;;5075562;28;20011;-71
2022/04/11 00:45:56;;;;;;;;;;;3.70;99.90;;;;;;5073807;28;20269;-71
2022/04/11 00:48:22;;;;;;;;;;;3.60;99.90;;;;;;5073461;28;19999;-71
2022/04/11 00:50:53;;;;;;;;;;;3.70;99.90;;;;;;5058657;28;20448;-72
2022/04/11 00:53:18;;;;;;;;;;;3.60;99.90;;;;;;5057352;28;20018;-72
2022/04/11 00:55:45;;;;;;;;;;;3.60;99.90;;;;;;5076582;28;20280;-72
2022/04/11 00:58:10;;;;;;;;;;;3.60;99.90;;;;;;5075620;28;19912;-72
2022/04/11 01:00:36;;;;;;;;;;;3.50;99.90;;;;;;5074076;28;19912;-71
2022/04/11 01:03:02;;;;;;;;;;;3.50;99.90;;;;;;5074079;28;19916;-72
2022/04/11 01:05:28;;;;;;;;;;;3.50;99.90;;;;;;5075879;28;20307;-72
2022/04/11 01:07:55;;;;;;;;;;;3.40;99.90;;;;;;5074076;28;19970;-72
2022/04/11 01:10:22;;;;;;;;;;;3.40;99.90;;;;;;5074343;28;19966;-71
2022/04/11 01:12:47;;;;;;;;;;;3.40;99.90;;;;;;5074121;28;19913;-71
2022/04/11 01:15:13;;;;;;;;;;;3.30;99.90;;;;;;5075552;28;20278;-71
2022/04/11 01:17:39;;;;;;;;;;;3.30;99.90;;;;;;5075453;28;20269;-72
2022/04/11 01:20:12;;;;;;;;;;;3.30;99.90;;;;;;5075292;28;19919;-71
2022/04/11 01:22:40;;;;;;;;;;;3.30;99.90;;;;;;5075360;28;19919;-71
2022/04/11 01:25:06;;;;;;;;;;;3.30;99.90;;;;;;5075499;28;19917;-72
2022/04/11 01:27:32;;;;;;;;;;;3.30;99.90;;;;;;5076135;28;20008;-72
2022/04/11 01:29:58;;;;;;;;;;;3.20;99.90;;;;;;5073937;28;19920;-72
2022/04/11 01:32:23;;;;;;;;;;;3.30;99.90;;;;;;5056478;28;20321;-72
2022/04/11 01:34:49;;;;;;;;;;;3.30;99.90;;;;;;5074860;28;19916;-72
2022/04/11 01:37:14;;;;;;;;;;;3.30;99.90;;;;;;5066558;28;20012;-72
2022/04/11 01:39:40;;;;;;;;;;;3.20;99.90;;;;;;5057059;28;20215;-71
2022/04/11 01:42:06;;;;;;;;;;;3.20;99.90;;;;;;5075131;28;20223;-72
2022/04/11 01:44:31;;;;;;;;;;;3.10;99.90;;;;;;5068226;28;20300;-73
2022/04/11 01:46:57;;;;;;;;;;;3.10;99.90;;;;;;5074746;28;19934;-73
2022/04/11 01:49:22;;;;;;;;;;;3.20;99.90;;;;;;5056617;28;19921;-73
2022/04/11 01:51:48;;;;;;;;;;;3.20;99.90;;;;;;5057490;28;19959;-73
2022/04/11 01:54:14;;;;;;;;;;;3.30;99.90;;;;;;5074630;28;20304;-73
2022/04/11 01:56:39;;;;;;;;;;;3.20;99.90;;;;;;5074976;28;19923;-72
2022/04/11 01:59:05;;;;;;;;;;;3.20;99.90;;;;;;5075544;28;19924;-71
2022/04/11 02:01:30;;;;;;;;;;;3.20;99.90;;;;;;5075519;28;19995;-72
2022/04/11 02:03:56;;;;;;;;;;;3.10;99.90;;;;;;5075135;28;19916;-71
2022/04/11 02:06:21;;;;;;;;;;;3.10;99.90;;;;;;5057574;28;19944;-71
2022/04/11 02:08:47;;;;;;;;;;;3.00;99.90;;;;;;5075036;28;19919;-72
2022/04/11 02:11:13;;;;;;;;;;;3.00;99.90;;;;;;5074678;28;19921;-71
2022/04/11 02:13:38;;;;;;;;;;;2.90;99.90;;;;;;5074779;28;19962;-71
2022/04/11 02:16:04;;;;;;;;;;;3.00;99.90;;;;;;5074962;28;19920;-73
2022/04/11 02:18:30;;;;;;;;;;;2.90;99.90;;;;;;5073487;28;20015;-71
2022/04/11 02:20:55;;;;;;;;;;;2.90;99.90;;;;;;5074958;28;19931;-71
2022/04/11 02:23:21;;;;;;;;;;;2.90;99.90;;;;;;5074396;28;19920;-71
2022/04/11 02:25:46;;;;;;;;;;;3.00;99.90;;;;;;5075047;28;19919;-72
2022/04/11 02:28:12;;;;;;;;;;;3.00;99.90;;;;;;5056904;28;19927;-71
2022/04/11 02:30:39;;;;;;;;;;;2.90;99.90;;;;;;5074682;28;19912;-71
2022/04/11 02:33:05;;;;;;;;;;;2.90;99.90;;;;;;5074808;28;19965;-74
2022/04/11 02:35:30;;;;;;;;;;;2.90;99.90;;;;;;5072291;28;20015;-71
2022/04/11 02:37:56;;;;;;;;;;;2.80;99.90;;;;;;5074485;28;19920;-71
2022/04/11 02:40:22;;;;;;;;;;;2.70;99.90;;;;;;5074218;28;19919;-71
2022/04/11 02:42:47;;;;;;;;;;;2.60;99.90;;;;;;5073884;28;19999;-72
2022/04/11 02:45:14;;;;;;;;;;;2.60;99.90;;;;;;5064910;28;19990;-71
2022/04/11 02:47:39;;;;;;;;;;;2.60;99.90;;;;;;5074118;28;19916;-71
2022/04/11 02:50:05;;;;;;;;;;;2.50;99.90;;;;;;5056810;28;20326;-71
2022/04/11 02:52:31;;;;;;;;;;;2.70;99.90;;;;;;5063493;28;20332;-72
2022/04/11 02:54:56;;;;;;;;;;;2.70;99.90;;;;;;5055714;28;20031;-71
2022/04/11 02:57:25;;;;;;;;;;;2.70;99.90;;;;;;5070929;28;19916;-71
2022/04/11 02:59:51;;;;;;;;;;;2.70;99.90;;;;;;5073880;28;19919;-72
2022/04/11 03:02:17;;;;;;;;;;;2.70;99.90;;;;;;5073144;28;20006;-71
2022/04/11 03:04:42;;;;;;;;;;;2.70;99.90;;;;;;5055594;28;19920;-71
2022/04/11 03:07:08;;;;;;;;;;;2.70;99.90;;;;;;5073553;28;19913;-72
2022/04/11 03:09:34;;;;;;;;;;;2.70;99.90;;;;;;5073289;28;19977;-71
2022/04/11 03:11:59;;;;;;;;;;;2.70;99.90;;;;;;5073787;28;19925;-72
2022/04/11 03:14:25;;;;;;;;;;;2.80;99.90;;;;;;5072639;28;20214;-71
2022/04/11 03:16:50;;;;;;;;;;;2.80;99.90;;;;;;5055204;28;19912;-72
2022/04/11 03:19:16;;;;;;;;;;;2.80;99.90;;;;;;5073680;28;19944;-71
2022/04/11 03:21:41;;;;;;;;;;;2.80;99.90;;;;;;5073762;28;19912;-72
2022/04/11 03:24:07;;;;;;;;;;;2.70;99.90;;;;;;5070672;28;19927;-71
2022/04/11 03:26:33;;;;;;;;;;;2.70;99.90;;;;;;5054643;28;19987;-71
2022/04/11 03:28:58;;;;;;;;;;;2.80;99.90;;;;;;5072047;28;19921;-71
2022/04/11 03:31:24;;;;;;;;;;;2.80;99.90;;;;;;5064520;28;19916;-71
2022/04/11 03:33:50;;;;;;;;;;;2.90;99.90;;;;;;5070766;28;19924;-72
2022/04/11 03:36:15;;;;;;;;;;;2.90;99.90;;;;;;5070621;28;19921;-72
2022/04/11 03:38:41;;;;;;;;;;;2.90;99.90;;;;;;5071866;28;19917;-71
2022/04/11 03:41:07;;;;;;;;;;;3.00;99.90;;;;;;5068776;28;20338;-71
2022/04/11 03:43:32;;;;;;;;;;;3.00;99.90;;;;;;5071388;28;19921;-73
2022/04/11 03:45:58;;;;;;;;;;;3.00;99.90;;;;;;5069778;28;19956;-71
2022/04/11 03:48:23;;;;;;;;;;;3.00;99.90;;;;;;5071497;28;19963;-71
2022/04/11 03:50:49;;;;;;;;;;;3.10;99.90;;;;;;5053690;28;19920;-71
2022/04/11 03:53:17;;;;;;;;;;;3.10;99.90;;;;;;5057592;28;19919;-71
2022/04/11 03:55:43;;;;;;;;;;;3.10;99.90;;;;;;5075739;28;20292;-71
2022/04/11 03:58:08;;;;;;;;;;;3.20;99.90;;;;;;5076456;28;19924;-71
2022/04/11 04:00:34;;;;;;;;;;;3.20;99.90;;;;;;5076713;28;20227;-71
2022/04/11 04:03:06;;;;;;;;;;;3.30;99.90;;;;;;5075538;28;20214;-71
2022/04/11 04:05:31;;;;;;;;;;;3.30;99.90;;;;;;5075712;28;20214;-71
2022/04/11 04:07:57;;;;;;;;;;;3.40;99.90;;;;;;5057870;28;19916;-73
2022/04/11 04:10:26;;;;;;;;;;;3.40;99.90;;;;;;5075081;28;19950;-71
2022/04/11 04:12:56;;;;;;;;;;;3.40;99.90;;;;;;5076187;28;20003;-71
2022/04/11 04:15:22;;;;;;;;;;;3.50;99.90;;;;;;5074577;28;19927;-71
2022/04/11 04:17:48;;;;;;;;;;;3.50;99.90;;;;;;5057683;28;20227;-72
2022/04/11 04:20:13;;;;;;;;;;;3.50;99.90;;;;;;5076064;28;19920;-72
2022/04/11 04:22:39;;;;;;;;;;;3.60;99.90;;;;;;5075671;28;19916;-71
2022/04/11 04:25:04;;;;;;;;;;;3.60;99.90;;;;;;5075807;28;20018;-74
2022/04/11 04:27:30;;;;;;;;;;;3.60;99.90;;;;;;5076776;28;19912;-72
2022/04/11 04:29:55;;;;;;;;;;;3.60;99.90;;;;;;5075370;28;19916;-72
2022/04/11 04:32:22;;;;;;;;;;;3.60;99.90;;;;;;5041469;28;19935;-71
2022/04/11 04:34:48;;;;;;;;;;;3.60;99.90;;;;;;5075643;28;19920;-73
2022/04/11 04:37:13;;;;;;;;;;;3.60;99.90;;;;;;5057987;28;19922;-72
2022/04/11 04:39:39;;;;;;;;;;;3.60;99.90;;;;;;5076059;28;19919;-71
2022/04/11 04:42:05;;;;;;;;;;;3.70;99.90;;;;;;5072908;28;20311;-72
2022/04/11 04:44:30;;;;;;;;;;;3.70;99.90;;;;;;5075472;28;20374;-72
2022/04/11 04:46:56;;;;;;;;;;;3.80;99.90;;;;;;5074296;28;19920;-71
2022/04/11 04:49:21;;;;;;;;;;;3.80;99.90;;;;;;5057016;28;19923;-71
2022/04/11 04:51:47;;;;;;;;;;;3.80;99.90;;;;;;5057262;28;20431;-72
2022/04/11 04:54:12;;;;;;;;;;;3.90;99.90;;;;;;5057822;28;19917;-71
2022/04/11 04:56:38;;;;;;;;;;;3.80;99.90;;;;;;5074893;28;19920;-72
2022/04/11 04:59:03;;;;;;;;;;;3.90;99.90;;;;;;5074679;28;19916;-71
2022/04/11 05:01:29;;;;;;;;;;;3.80;99.90;;;;;;5066683;28;20342;-72
2022/04/11 05:03:55;;;;;;;;;;;3.80;99.90;;;;;;5055868;28;20287;-72
2022/04/11 05:06:22;;;;;;;;;;;3.80;99.90;;;;;;5058345;28;20212;-72
2022/04/11 05:08:48;;;;;;;;;;;3.80;99.90;;;;;;5058066;28;20003;-73
2022/04/11 05:11:13;;;;;;;;;;;3.80;99.90;;;;;;5057181;28;20335;-72
2022/04/11 05:13:40;;;;;;;;;;;3.80;99.90;;;;;;5073497;28;20218;-71
2022/04/11 05:16:05;;;;;;;;;;;3.70;99.90;;;;;;5069270;28;19913;-71
2022/04/11 05:18:31;;;;;;;;;;;3.70;99.90;;;;;;5053044;28;19942;-72
2022/04/11 05:20:57;;;;;;;;;;;3.70;99.90;;;;;;5071351;28;20002;-72
2022/04/11 05:23:22;;;;;;;;;;;3.70;99.90;;;;;;5070437;28;20303;-71
2022/04/11 05:25:48;;;;;;;;;;;3.70;99.90;;;;;;5069665;28;19932;-71
2022/04/11 05:28:13;;;;;;;;;;;3.70;99.90;;;;;;5070310;28;19971;-73
2022/04/11 05:30:39;;;;;;;;;;;3.70;99.90;;;;;;5069122;28;19921;-71
2022/04/11 05:33:04;;;;;;;;;;;3.80;99.90;;;;;;5068303;28;19940;-72
2022/04/11 05:35:31;;;;;;;;;;;3.80;99.90;;;;;;5068459;28;19928;-72
2022/04/11 05:37:56;;;;;;;;;;;3.80;99.90;;;;;;5071089;28;19970;-72
2022/04/11 05:40:22;;;;;;;;;;;3.90;99.90;;;;;;5050086;28;19916;-72
2022/04/11 05:42:47;;;;;;;;;;;4.00;99.90;;;;;;5068365;28;19999;-72
2022/04/11 05:45:13;;;;;;;;;;;4.10;99.90;;;;;;5064163;28;19917;-72
2022/04/11 05:47:39;;;;;;;;;;;4.30;99.90;;;;;;5069886;28;19921;-72
2022/04/11 05:50:04;;;;;;;;;;;4.40;99.90;;;;;;5072370;28;19920;-72
2022/04/11 05:52:30;;;;;;;;;;;4.50;99.90;;;;;;5073039;28;19932;-72
2022/04/11 05:54:56;;;;;;;;;;;4.70;99.90;;;;;;5075155;28;19924;-73
2022/04/11 05:57:21;;;;;;;;;;;4.80;99.90;;;;;;5070238;28;19916;-72
2022/04/11 05:59:47;;;;;;;;;;;5.00;99.90;;;;;;5063128;28;20264;-71
2022/04/11 06:02:12;;;;;;;;;;;5.20;99.90;;;;;;5073523;28;20257;-72
2022/04/11 06:04:38;;;;;;;;;;;5.40;99.90;;;;;;5074467;28;19955;-72
2022/04/11 06:07:04;;;;;;;;;;;5.50;99.90;;;;;;5073030;28;20606;-73
2022/04/11 06:09:30;;;;;;;;;;;5.60;99.90;;;;;;5065755;28;19912;-72
2022/04/11 06:11:56;;;;;;;;;;;5.70;99.90;;;;;;5073462;28;19920;-73
2022/04/11 06:14:22;;;;;;;;;;;5.80;99.90;;;;;;5071732;28;19936;-72
2022/04/11 06:16:47;;;;;;;;;;;5.80;99.90;;;;;;5072871;28;19912;-71
2022/04/11 06:19:17;;;;;;;;;;;5.90;99.90;;;;;;5055932;28;19917;-72
2022/04/11 06:21:43;;;;;;;;;;;6.00;99.90;;;;;;5073349;28;20380;-72
2022/04/11 06:24:08;;;;;;;;;;;6.00;99.90;;;;;;5073211;28;19959;-71
2022/04/11 06:26:34;;;;;;;;;;;6.10;99.90;;;;;;5072380;28;19924;-72
2022/04/11 06:29:00;;;;;;;;;;;6.20;99.90;;;;;;5074245;28;20507;-72
2022/04/11 06:31:25;;;;;;;;;;;6.20;99.90;;;;;;5074138;28;19913;-73
2022/04/11 06:33:51;;;;;;;;;;;6.20;99.90;;;;;;5073663;28;19912;-73
2022/04/11 06:36:16;;;;;;;;;;;6.30;99.90;;;;;;5073002;28;19920;-72
2022/04/11 06:38:42;;;;;;;;;;;6.40;99.90;;;;;;5073331;28;20016;-73
2022/04/11 06:41:07;;;;;;;;;;;6.50;99.90;;;;;;5069628;28;20326;-72
2022/04/11 06:43:33;;;;;;;;;;;6.60;99.90;;;;;;5056576;28;20326;-72
2022/04/11 06:45:59;;;;;;;;;;;6.80;99.90;;;;;;5073373;28;20341;-71
2022/04/11 06:48:25;;;;;;;;;;;7.00;99.90;;;;;;5073239;28;19921;-72
2022/04/11 06:50:51;;;;;;;;;;;7.10;99.90;;;;;;5056422;28;19928;-72
2022/04/11 06:53:17;;;;;;;;;;;7.30;99.90;;;;;;5072202;28;20241;-72
2022/04/11 06:55:43;;;;;;;;;;;7.40;99.90;;;;;;5072393;28;19924;-73
2022/04/11 06:58:09;;;;;;;;;;;7.60;99.90;;;;;;5072505;28;20475;-72
2022/04/11 07:00:34;;;;;;;;;;;8.00;99.90;;;;;;5072226;28;20011;-72
2022/04/11 07:03:00;;;;;;;;;;;8.80;99.90;;;;;;5073977;28;20012;-71
2022/04/11 07:05:26;;;;;;;;;;;9.50;99.90;;;;;;5074204;28;20372;-73
2022/04/11 07:07:52;;;;;;;;;;;9.90;99.90;;;;;;5074599;28;19909;-73
2022/04/11 07:10:17;;;;;;;;;;;10.20;99.90;;;;;;5073039;28;19933;-72
2022/04/11 07:12:43;;;;;;;;;;;10.40;99.90;;;;;;5074217;28;19912;-72
2022/04/11 07:15:09;;;;;;;;;;;10.50;99.90;;;;;;5074048;28;19999;-72
2022/04/11 07:17:35;;;;;;;;;;;10.60;99.90;;;;;;5073498;28;19970;-73
2022/04/11 07:20:01;;;;;;;;;;;10.80;99.90;;;;;;5074562;28;19955;-73
2022/04/11 07:22:27;;;;;;;;;;;11.00;99.90;;;;;;5061511;28;19920;-73
2022/04/11 07:24:53;;;;;;;;;;;11.20;99.90;;;;;;5072731;28;19966;-73
2022/04/11 07:27:19;;;;;;;;;;;11.20;99.90;;;;;;5072318;28;19923;-72
2022/04/11 07:29:44;;;;;;;;;;;11.00;99.90;;;;;;5075640;28;19920;-72
2022/04/11 07:32:10;;;;;;;;;;;10.90;99.90;;;;;;5056863;28;20331;-73
2022/04/11 07:34:36;;;;;;;;;;;11.00;99.90;;;;;;5060198;28;19924;-72
2022/04/11 07:37:01;;;;;;;;;;;11.00;99.90;;;;;;5077171;28;19913;-72
2022/04/11 07:39:29;;;;;;;;;;;10.90;99.90;;;;;;5076194;28;20009;-72
2022/04/11 07:41:54;;;;;;;;;;;10.90;99.90;;;;;;5076126;28;19913;-72
2022/04/11 07:44:20;;;;;;;;;;;11.00;99.90;;;;;;5074149;28;19912;-72
2022/04/11 07:46:46;;;;;;;;;;;11.10;99.90;;;;;;5075774;28;19923;-73
2022/04/11 07:49:11;;;;;;;;;;;11.30;99.90;;;;;;5041311;28;20202;-73
2022/04/11 07:51:37;;;;;;;;;;;11.60;99.90;;;;;;5076552;28;19912;-72
2022/04/11 07:54:03;;;;;;;;;;;11.80;99.90;;;;;;5067431;28;19916;-73
2022/04/11 07:56:31;;;;;;;;;;;11.80;99.90;;;;;;5068172;28;19921;-73
2022/04/11 07:58:57;;;;;;;;;;;12.00;99.90;;;;;;5070402;28;19919;-72
2022/04/11 08:01:23;;;;;;;;;;;12.20;99.90;;;;;;5074575;28;19916;-73
2022/04/11 08:03:49;;;;;;;;;;;12.50;99.90;;;;;;5073727;28;20380;-72
2022/04/11 08:06:14;;;;;;;;;;;13.00;99.90;;;;;;5064657;28;20361;-73
2022/04/11 08:08:47;;;;;;;;;;;13.30;99.90;;;;;;5075610;28;19923;-73
2022/04/11 08:11:20;;;;;;;;;;;13.40;98.80;;;;;;5058557;28;19920;-73
2022/04/11 08:13:45;;;;;;;;;;;13.60;99.90;;;;;;5074787;28;19908;-73
2022/04/11 08:16:12;;;;;;;;;;;13.70;99.50;;;;;;5074755;28;20003;-73
2022/04/11 08:18:37;;;;;;;;;;;13.90;98.00;;;;;;5043309;28;19913;-73
2022/04/11 08:21:03;;;;;;;;;;;14.10;96.80;;;;;;5059673;28;19912;-73
2022/04/11 08:23:29;;;;;;;;;;;14.10;97.50;;;;;;5074952;28;20253;-73
2022/04/11 08:25:55;;;;;;;;;;;14.30;96.20;;;;;;5072587;28;19913;-73
2022/04/11 08:28:21;;;;;;;;;;;14.20;96.80;;;;;;5069996;28;19962;-73
2022/04/11 08:30:47;;;;;;;;;;;14.30;97.40;;;;;;5076670;28;19916;-73
2022/04/11 08:33:13;;;;;;;;;;;14.50;96.50;;;;;;5073301;28;19924;-73
2022/04/11 08:35:39;;;;;;;;;;;14.60;95.50;;;;;;5077074;28;19944;-73
2022/04/11 08:38:04;;;;;;;;;;;14.80;96.80;;;;;;5075956;28;19920;-73
2022/04/11 08:40:30;;;;;;;;;;;14.80;95.10;;;;;;5067345;28;19916;-73
2022/04/11 08:42:56;;;;;;;;;;;15.00;94.10;;;;;;5078080;28;19916;-72
2022/04/11 08:45:23;;;;;;;;;;;14.90;93.70;;;;;;5077613;28;19935;-72
2022/04/11 08:47:56;;;;;;;;;;;14.70;94.10;;;;;;5077074;28;19916;-74
2022/04/11 08:50:22;;;;;;;;;;;15.00;93.60;;;;;;5059089;28;19959;-72
2022/04/11 08:52:49;;;;;;;;;;;15.10;93.00;;;;;;5072272;28;19944;-73
2022/04/11 08:55:14;;;;;;;;;;;15.00;92.60;;;;;;5047929;28;19974;-73
2022/04/11 08:57:40;;;;;;;;;;;14.90;93.90;;;;;;5075193;28;19912;-73
2022/04/11 09:00:16;;;;;;;;;;;14.80;95.50;;;;;;5075569;28;19924;-73
2022/04/11 09:02:42;;;;;;;;;;;14.60;94.90;;;;;;5074777;28;19912;-73
2022/04/11 09:05:08;;;;;;;;;;;14.30;95.70;;;;;;5074312;28;19951;-72
2022/04/11 09:07:43;;;;;;;;;;;13.90;95.70;;;;;;5056360;28;19959;-75
2022/04/11 09:10:09;;;;;;;;;;;13.90;96.20;;;;;;5066189;28;19956;-72
2022/04/11 09:12:43;;;;;;;;;;;13.70;95.50;;;;;;5073891;28;20370;-73
2022/04/11 09:15:09;;;;;;;;;;;13.80;98.30;;;;;;5074494;28;19928;-72
2022/04/11 09:17:39;;;;;;;;;;;14.00;98.10;;;;;;5071549;28;19921;-72
2022/04/11 09:20:06;;;;;;;;;;;14.00;97.20;;;;;;5056490;28;20408;-73
2022/04/11 09:22:31;;;;;;;;;;;14.20;97.70;;;;;;5072393;28;19957;-73
2022/04/11 09:25:16;;;;;;;;;;;14.70;95.40;;;;;;5075460;28;20003;-72
2022/04/11 09:27:42;;;;;;;;;;;15.00;92.30;;;;;;5073094;28;19912;-72
2022/04/11 09:30:20;;;;;;;;;;;15.00;92.70;;;;;;5073095;28;20360;-72
2022/04/11 09:32:50;;;;;;;;;;;15.30;93.50;;;;;;5074288;28;20011;-74
2022/04/11 09:35:19;;;;;;;;;;;15.10;91.60;;;;;;5074378;28;20014;-72
2022/04/11 09:37:44;;;;;;;;;;;15.20;91.70;;;;;;5075295;28;19912;-72
2022/04/11 09:40:10;;;;;;;;;;;15.10;90.80;;;;;;5072251;28;19966;-72
2022/04/11 09:42:36;;;;;;;;;;;15.00;91.40;;;;;;5041199;28;20017;-72
2022/04/11 09:45:02;;;;;;;;;;;15.10;91.20;;;;;;5074597;28;19916;-74
2022/04/11 09:47:28;;;;;;;;;;;15.30;90.70;;;;;;5074302;28;19923;-75
2022/04/11 09:49:54;;;;;;;;;;;15.40;90.00;;;;;;5056617;28;19916;-77
2022/04/11 09:52:20;;;;;;;;;;;15.20;89.70;;;;;;5074464;28;19927;-75
2022/04/11 09:54:47;;;;;;;;;;;15.20;91.30;;;;;;5066205;28;20077;-75
2022/04/11 09:57:17;;;;;;;;;;;15.30;90.10;;;;;;5047522;28;19935;-73
2022/04/11 09:59:44;;;;;;;;;;;15.20;88.20;;;;;;5074360;28;19913;-73
2022/04/11 10:02:10;;;;;;;;;;;15.20;90.30;;;;;;5073951;28;20325;-73
2022/04/11 10:04:37;;;;;;;;;;;15.20;90.40;;;;;;5055400;28;20265;-72
2022/04/11 10:07:03;;;;;;;;;;;15.10;88.90;;;;;;5055192;28;19956;-75
2022/04/11 10:09:29;;;;;;;;;;;15.20;89.00;;;;;;5071890;28;19920;-74
2022/04/11 10:11:55;;;;;;;;;;;15.20;88.50;;;;;;5054468;28;20261;-72
2022/04/11 10:14:28;;;;;;;;;;;15.20;89.30;;;;;;5074888;28;20295;-74
2022/04/11 10:16:55;;;;;;;;;;;15.20;89.40;;;;;;5073902;28;20331;-73
2022/04/11 10:19:22;;;;;;;;;;;15.30;88.30;;;;;;5074220;28;19959;-73
2022/04/11 10:21:48;;;;;;;;;;;15.20;89.10;;;;;;5056203;28;19919;-73
2022/04/11 10:24:14;;;;;;;;;;;15.20;87.80;;;;;;5055752;28;20235;-74
2022/04/11 10:26:44;;;;;;;;;;;15.20;88.20;;;;;;5073527;28;19942;-74
2022/04/11 10:29:28;;;;;;;;;;;15.20;85.60;;;;;;5078424;28;19912;-75
2022/04/11 10:32:04;;;;;;;;;;;15.10;88.40;;;;;;5067342;28;19919;-73
2022/04/11 10:34:49;;;;;;;;;;;15.10;87.90;;;;;;5066735;28;20090;-72
2022/04/11 10:37:15;;;;;;;;;;;15.10;89.30;;;;;;5068542;28;19923;-73
2022/04/11 10:39:43;;;;;;;;;;;15.20;89.20;;;;;;5069641;28;19974;-73
2022/04/11 10:42:20;;;;;;;;;;;15.30;88.50;;;;;;5074835;28;19962;-73
2022/04/11 10:44:46;;;;;;;;;;;15.40;87.10;;;;;;5070375;28;19954;-73
2022/04/11 10:47:12;;;;;;;;;;;15.50;87.20;;;;;;5070813;28;19934;-73
2022/04/11 10:49:50;;;;;;;;;;;15.50;91.10;;;;;;5049271;28;19908;-73
2022/04/11 10:52:29;;;;;;;;;;;15.60;87.00;;;;;;5066123;28;20192;-73
2022/04/11 10:54:55;;;;;;;;;;;15.80;87.10;;;;;;5067346;28;19913;-73
2022/04/11 10:57:41;;;;;;;;;;;15.90;86.50;;;;;;5049134;28;19924;-72
2022/04/11 11:00:10;;;;;;;;;;;15.70;89.60;;;;;;5063535;28;20012;-72
2022/04/11 11:02:48;;;;;;;;;;;15.70;86.70;;;;;;5044655;28;19920;-74
2022/04/11 11:05:40;;;;;;;;;;;15.60;84.60;;;;;;5063666;28;19912;-75
2022/04/11 11:08:12;;;;;;;;;;;15.40;86.10;;;;;;5052804;28;20064;-72
2022/04/11 11:10:52;;;;;;;;;;;15.30;88.60;;;;;;5057413;28;19998;-72
2022/04/11 11:13:30;;;;;;;;;;;14.90;89.60;;;;;;5057473;28;20407;-73
2022/04/11 11:16:09;;;;;;;;;;;15.40;87.80;;;;;;5070549;28;20367;-73
2022/04/11 11:18:46;;;;;;;;;;;15.60;85.30;;;;;;5067905;28;19912;-76
2022/04/11 11:21:18;;;;;;;;;;;15.80;86.50;;;;;;5073424;28;19908;-76
2022/04/11 11:26:40;;;;;;;;;;;15.70;85.60;;;;;;5075595;28;20303;-73
2022/04/11 11:29:26;;;;;;;;;;;15.60;87.40;;;;;;5056256;28;19956;-75
2022/04/11 11:31:52;;;;;;;;;;;15.70;84.00;;;;;;5074058;28;19912;-72
2022/04/11 11:34:19;;;;;;;;;;;15.60;84.40;;;;;;5056259;28;19921;-72
2022/04/11 11:36:45;;;;;;;;;;;15.70;85.30;;;;;;5075065;28;19951;-73
2022/04/11 11:39:16;;;;;;;;;;;15.80;81.40;;;;;;5075383;28;19944;-73
2022/04/11 11:41:42;;;;;;;;;;;15.80;81.90;;;;;;5075087;28;19909;-73
2022/04/11 11:44:09;;;;;;;;;;;15.80;81.70;;;;;;5073607;28;19920;-73
2022/04/11 11:46:47;;;;;;;;;;;15.80;81.90;;;;;;5063507;28;19917;-74
2022/04/11 11:49:13;;;;;;;;;;;15.80;80.00;;;;;;5072374;28;19958;-74
2022/04/11 11:51:39;;;;;;;;;;;15.60;82.70;;;;;;5071455;28;19924;-73
2022/04/11 11:54:05;;;;;;;;;;;15.70;81.50;;;;;;5072685;28;21147;-72
2022/04/11 11:56:39;;;;;;;;;;;15.90;78.40;;;;;;5067918;28;19962;-72
2022/04/11 11:59:05;;;;;;;;;;;15.90;79.90;;;;;;5066578;28;19913;-72
2022/04/11 12:01:31;;;;;;;;;;;15.80;81.30;;;;;;5063143;28;20376;-72
2022/04/11 12:06:42;;;;;;;;;;;15.80;79.00;;;;;;5069539;28;19931;-74
2022/04/11 12:09:07;;;;;;;;;;;15.80;79.00;;;;;;5054096;28;19919;-73
2022/04/11 12:11:34;;;;;;;;;;;15.80;79.70;;;;;;5073203;28;19925;-71
2022/04/11 12:14:01;;;;;;;;;;;15.90;79.20;;;;;;5056596;28;19913;-72
2022/04/11 12:16:29;;;;;;;;;;;15.90;77.70;;;;;;5058450;28;19970;-73
2022/04/11 12:18:59;;;;;;;;;;;15.80;78.30;;;;;;5075372;28;19920;-71
2022/04/11 12:21:32;;;;;;;;;;;15.70;76.70;;;;;;5076065;28;20192;-73
2022/04/11 12:23:58;;;;;;;;;;;15.50;78.90;;;;;;5058426;28;19917;-72
2022/04/11 12:26:24;;;;;;;;;;;15.50;79.80;;;;;;5075814;28;20347;-73
2022/04/11 12:28:50;;;;;;;;;;;15.80;78.70;;;;;;5076664;28;19920;-72
2022/04/11 12:31:18;;;;;;;;;;;15.90;77.10;;;;;;5075819;28;20443;-76
2022/04/11 12:33:49;;;;;;;;;;;15.80;78.90;;;;;;5077078;28;19938;-72
2022/04/11 12:36:26;;;;;;;;;;;15.80;77.90;;;;;;5076621;28;19923;-72
2022/04/11 12:38:59;;;;;;;;;;;16.00;79.90;;;;;;5074270;28;19919;-73
2022/04/11 12:41:25;;;;;;;;;;;16.10;79.20;;;;;;5075287;28;20315;-72
2022/04/11 12:44:07;;;;;;;;;;;16.10;75.80;;;;;;5075716;28;19913;-73
2022/04/11 12:46:37;;;;;;;;;;;16.10;77.80;;;;;;5066641;28;19916;-76
2022/04/11 12:49:03;;;;;;;;;;;16.10;78.20;;;;;;5040275;28;20326;-72
2022/04/11 12:51:29;;;;;;;;;;;16.20;75.60;;;;;;5068766;28;19925;-72
2022/04/11 12:54:08;;;;;;;;;;;16.10;76.50;;;;;;5075580;28;19924;-72
2022/04/11 12:56:34;;;;;;;;;;;16.00;80.50;;;;;;5075039;28;20231;-74
2022/04/11 12:58:59;;;;;;;;;;;16.20;78.10;;;;;;5058591;28;19916;-72
2022/04/11 13:01:45;;;;;;;;;;;16.30;79.30;;;;;;5074610;28;20357;-72
2022/04/11 13:04:10;;;;;;;;;;;16.20;76.80;;;;;;5075645;28;20057;-72
2022/04/11 13:06:36;;;;;;;;;;;16.20;78.10;;;;;;5058652;28;19987;-72
2022/04/11 13:09:02;;;;;;;;;;;16.20;80.90;;;;;;5072892;28;19913;-72
2022/04/11 13:11:27;;;;;;;;;;;16.20;83.00;;;;;;5057945;28;19928;-72
2022/04/11 13:13:53;;;;;;;;;;;16.40;79.80;;;;;;5070008;28;19916;-72
2022/04/11 13:19:03;;;;;;;;;;;16.30;80.10;;;;;;5074692;28;19919;-72
2022/04/11 13:21:28;;;;;;;;;;;16.20;80.60;;;;;;5072451;28;19920;-71
2022/04/11 13:23:54;;;;;;;;;;;16.20;79.70;;;;;;5073339;28;19916;-72
2022/04/11 13:26:19;;;;;;;;;;;16.10;78.60;;;;;;5075744;28;19999;-72
2022/04/11 13:28:45;;;;;;;;;;;16.20;77.40;;;;;;5058503;28;19916;-72
2022/04/11 13:31:10;;;;;;;;;;;16.20;78.40;;;;;;5075066;28;20200;-72
2022/04/11 13:33:36;;;;;;;;;;;16.10;77.20;;;;;;5074340;28;19917;-76
2022/04/11 13:36:02;;;;;;;;;;;16.20;79.50;;;;;;5071583;28;20562;-72
2022/04/11 13:38:27;;;;;;;;;;;16.00;79.70;;;;;;5070657;28;19917;-72
2022/04/11 13:40:53;;;;;;;;;;;15.90;78.00;;;;;;5068452;28;19932;-72
2022/04/11 13:43:18;;;;;;;;;;;15.90;78.40;;;;;;5070204;28;19940;-72
2022/04/11 13:45:44;;;;;;;;;;;15.80;78.00;;;;;;5056351;28;19918;-71
2022/04/11 13:48:10;;;;;;;;;;;15.80;77.90;;;;;;5070122;28;19998;-71
2022/04/11 13:50:36;;;;;;;;;;;15.90;76.20;;;;;;5055530;28;19974;-72
2022/04/11 13:53:03;;;;;;;;;;;15.80;76.80;;;;;;5047163;28;19936;-72
2022/04/11 13:55:29;;;;;;;;;;;15.80;79.00;;;;;;5073889;28;20027;-72
2022/04/11 13:57:54;;;;;;;;;;;15.80;79.50;;;;;;5055168;28;20003;-78
2022/04/11 14:00:20;;;;;;;;;;;15.90;79.10;;;;;;5065413;28;19962;-71
2022/04/11 14:02:46;;;;;;;;;;;15.80;76.80;;;;;;5073603;28;19919;-72
2022/04/11 14:05:11;;;;;;;;;;;15.70;78.10;;;;;;5057100;28;20223;-72
2022/04/11 14:07:37;;;;;;;;;;;15.70;78.50;;;;;;5075515;28;19920;-72
2022/04/11 14:10:02;;;;;;;;;;;15.80;78.30;;;;;;5073738;28;19924;-72
2022/04/11 14:12:28;;;;;;;;;;;15.80;76.50;;;;;;5073226;28;20307;-73
2022/04/11 14:14:53;;;;;;;;;;;15.90;79.60;;;;;;5074101;28;19920;-72
2022/04/11 14:17:19;;;;;;;;;;;15.90;81.00;;;;;;5075066;28;20200;-71
2022/04/11 14:19:45;;;;;;;;;;;15.90;78.50;;;;;;5074509;28;20007;-71
2022/04/11 14:22:10;;;;;;;;;;;15.90;77.60;;;;;;5072600;28;19916;-72
2022/04/11 14:24:36;;;;;;;;;;;15.90;81.90;;;;;;5055049;28;20294;-71
2022/04/11 14:27:01;;;;;;;;;;;15.50;83.90;;;;;;5073238;28;19975;-72
2022/04/11 14:29:27;;;;;;;;;;;15.60;82.80;;;;;;5073870;28;19912;-72
2022/04/11 14:32:18;;;;;;;;;;;15.70;80.10;;;;;;5073821;28;19913;-74